Time;durP1;ratioP1;P1;durP2;ratioP2;P2;SDS_P1;SDS_P2;PMS_P1;PMS_P2;Temp;Humidity;BMP_temperature;BMP_pressure;BME280_temperature;BME280_humidity;BME280_pressure;Samples;Min_cycle;Max_cycle;Signal;HPM_P1;HPM_P2
2022/06/05 00:02:29;;;;;;;2.90;2.80;;;;;;;;;;10435524;28;20272;-73
2022/06/05 00:07:43;;;;;;;3.08;2.70;;;;;;;;;;10436558;28;20218;-73
2022/06/05 00:13:03;;;;;;;3.40;3.10;;;;;;;;;;10400467;28;20201;-73
2022/06/05 00:18:04;;;;;;;2.80;2.80;;;;;;;;;;10456641;28;20182;-72
2022/06/05 00:23:05;;;;;;;2.88;2.78;;;;;;;;;;10458921;28;20206;-72
2022/06/05 00:28:13;;;;;;;3.15;2.72;;;;;;;;;;10467856;28;20174;-72
2022/06/05 00:33:18;;;;;;;2.88;2.78;;;;;;;;;;10432447;28;20702;-72
2022/06/05 00:38:26;;;;;;;3.42;3.22;;;;;;;;;;10430012;28;20183;-73
2022/06/05 00:43:27;;;;;;;2.95;2.80;;;;;;;;;;10458884;28;20636;-73
2022/06/05 00:48:29;;;;;;;2.90;2.70;;;;;;;;;;10450907;28;20201;-73
2022/06/05 00:53:30;;;;;;;2.85;2.85;;;;;;;;;;10434944;28;20227;-73
2022/06/05 00:58:32;;;;;;;3.25;3.05;;;;;;;;;;10439411;28;20698;-73
2022/06/05 01:03:33;;;;;;;3.50;3.40;;;;;;;;;;10458578;28;20260;-73
2022/06/05 01:08:34;;;;;;;3.13;3.03;;;;;;;;;;10459134;28;20606;-71
2022/06/05 01:13:50;;;;;;;3.40;3.30;;;;;;;;;;10457117;28;20212;-72
2022/06/05 01:19:06;;;;;;;3.70;3.50;;;;;;;;;;10431448;28;20213;-71
2022/06/05 01:24:10;;;;;;;3.47;3.25;;;;;;;;;;10449557;28;20191;-72
2022/06/05 01:29:20;;;;;;;3.83;3.70;;;;;;;;;;10436250;28;20179;-71
2022/06/05 01:34:27;;;;;;;4.28;4.10;;;;;;;;;;10447398;28;20613;-71
2022/06/05 01:39:34;;;;;;;3.30;3.20;;;;;;;;;;10453983;28;20194;-72
2022/06/05 01:44:43;;;;;;;4.20;3.95;;;;;;;;;;10443748;28;20194;-72
2022/06/05 01:49:46;;;;;;;3.50;3.33;;;;;;;;;;10436596;28;20683;-73
2022/06/05 01:54:55;;;;;;;3.55;3.35;;;;;;;;;;10440774;28;20293;-72
2022/06/05 02:00:06;;;;;;;3.78;3.65;;;;;;;;;;10427688;28;20206;-71
2022/06/05 02:05:11;;;;;;;3.92;3.63;;;;;;;;;;10459401;28;20359;-73
2022/06/05 02:10:15;;;;;;;4.30;4.03;;;;;;;;;;10452441;28;20199;-72
2022/06/05 02:15:16;;;;;;;3.88;3.78;;;;;;;;;;10438693;28;20255;-72
2022/06/05 02:20:19;;;;;;;4.32;4.22;;;;;;;;;;10449361;28;20249;-73
2022/06/05 02:25:22;;;;;;;3.90;3.75;;;;;;;;;;10449652;28;20209;-72
2022/06/05 02:30:24;;;;;;;3.83;3.72;;;;;;;;;;10459703;28;20605;-71
2022/06/05 02:35:44;;;;;;;4.30;4.10;;;;;;;;;;10449705;28;20744;-73
2022/06/05 02:40:51;;;;;;;4.10;4.00;;;;;;;;;;10459812;28;20206;-72
2022/06/05 02:46:08;;;;;;;4.45;4.35;;;;;;;;;;10466682;28;20198;-72
2022/06/05 02:51:10;;;;;;;4.60;4.30;;;;;;;;;;10460059;28;20182;-73
2022/06/05 02:56:11;;;;;;;4.60;4.15;;;;;;;;;;10451439;28;21027;-72
2022/06/05 03:06:33;;;;;;;4.32;4.20;;;;;;;;;;10443137;28;20247;-72
2022/06/05 03:11:34;;;;;;;4.68;4.47;;;;;;;;;;10419802;28;20206;-71
2022/06/05 03:16:35;;;;;;;4.30;4.13;;;;;;;;;;10419684;28;20252;-72
2022/06/05 03:21:37;;;;;;;3.90;3.60;;;;;;;;;;10400105;28;20211;-72
2022/06/05 03:26:39;;;;;;;4.05;3.85;;;;;;;;;;10423401;28;20233;-72
2022/06/05 03:31:40;;;;;;;4.25;4.15;;;;;;;;;;10422532;28;20208;-72
2022/06/05 03:36:41;;;;;;;4.68;4.07;;;;;;;;;;10397186;28;20178;-72
2022/06/05 03:41:42;;;;;;;4.47;4.15;;;;;;;;;;10417097;28;20757;-72
2022/06/05 03:46:44;;;;;;;4.53;4.15;;;;;;;;;;10407503;28;20225;-73
2022/06/05 03:51:45;;;;;;;4.97;4.57;;;;;;;;;;10425367;28;20199;-73
2022/06/05 03:56:46;;;;;;;4.75;4.55;;;;;;;;;;10391041;28;20690;-72
2022/06/05 04:01:48;;;;;;;4.22;4.13;;;;;;;;;;10421002;28;20214;-72
2022/06/05 04:06:49;;;;;;;4.25;4.15;;;;;;;;;;10444296;28;20218;-73
2022/06/05 04:11:50;;;;;;;4.15;4.05;;;;;;;;;;10443546;28;20737;-73
2022/06/05 04:16:51;;;;;;;4.85;4.63;;;;;;;;;;10457824;28;20174;-72
2022/06/05 04:21:52;;;;;;;4.07;3.97;;;;;;;;;;10424973;28;20695;-71
2022/06/05 04:26:53;;;;;;;4.88;4.47;;;;;;;;;;10435499;28;20765;-72
2022/06/05 04:31:54;;;;;;;4.40;4.22;;;;;;;;;;10446339;28;20206;-72
2022/06/05 04:36:56;;;;;;;4.63;4.53;;;;;;;;;;10462902;28;20170;-73
2022/06/05 04:41:57;;;;;;;4.80;4.60;;;;;;;;;;10424778;28;20214;-72
2022/06/05 04:46:58;;;;;;;4.70;4.50;;;;;;;;;;10459199;28;20177;-71
2022/06/05 04:51:59;;;;;;;5.03;4.75;;;;;;;;;;10463602;28;20206;-72
2022/06/05 04:57:00;;;;;;;4.75;4.30;;;;;;;;;;10451507;28;21042;-72
2022/06/05 05:02:01;;;;;;;4.50;4.20;;;;;;;;;;10436242;28;20215;-72
2022/06/05 05:07:03;;;;;;;4.45;4.18;;;;;;;;;;10444995;28;20212;-72
2022/06/05 05:12:04;;;;;;;4.70;4.40;;;;;;;;;;10449993;28;20249;-72
2022/06/05 05:17:05;;;;;;;4.70;4.30;;;;;;;;;;10442816;28;20269;-73
2022/06/05 05:22:07;;;;;;;5.32;5.03;;;;;;;;;;10439654;28;20214;-72
2022/06/05 05:27:08;;;;;;;4.28;4.07;;;;;;;;;;10425880;28;20652;-74
2022/06/05 05:32:10;;;;;;;4.10;3.90;;;;;;;;;;10435749;28;20257;-75
2022/06/05 05:37:11;;;;;;;4.40;4.20;;;;;;;;;;10438803;28;21666;-75
2022/06/05 05:42:12;;;;;;;3.97;3.80;;;;;;;;;;10449783;28;20207;-74
2022/06/05 05:47:17;;;;;;;3.83;3.72;;;;;;;;;;10460270;28;20560;-74
2022/06/05 05:52:19;;;;;;;4.50;4.20;;;;;;;;;;10468591;28;20198;-74
2022/06/05 05:57:20;;;;;;;3.58;3.47;;;;;;;;;;10446388;28;20210;-74
2022/06/05 06:02:23;;;;;;;4.00;3.83;;;;;;;;;;10440416;28;20278;-74
2022/06/05 06:07:24;;;;;;;3.88;3.58;;;;;;;;;;10447877;28;20284;-75
2022/06/05 06:12:26;;;;;;;4.07;3.38;;;;;;;;;;10435547;28;20194;-74
2022/06/05 06:17:27;;;;;;;3.30;3.22;;;;;;;;;;10446796;28;20233;-74
2022/06/05 06:22:28;;;;;;;3.60;3.40;;;;;;;;;;10451535;28;20261;-74
2022/06/05 06:27:30;;;;;;;2.75;2.67;;;;;;;;;;10423772;28;20265;-75
2022/06/05 06:32:31;;;;;;;3.10;2.90;;;;;;;;;;10453245;28;20265;-74
2022/06/05 06:37:34;;;;;;;3.13;3.05;;;;;;;;;;10424434;28;20268;-75
2022/06/05 06:42:35;;;;;;;3.53;3.33;;;;;;;;;;10434910;28;20217;-73
2022/06/05 06:47:36;;;;;;;4.10;2.53;;;;;;;;;;10446029;28;20277;-74
2022/06/05 06:52:37;;;;;;;4.57;2.75;;;;;;;;;;10423351;28;20293;-74
2022/06/05 06:57:39;;;;;;;3.25;3.20;;;;;;;;;;10396511;28;20182;-74
2022/06/05 07:02:40;;;;;;;2.70;2.65;;;;;;;;;;10431977;28;20718;-72
2022/06/05 07:07:41;;;;;;;3.30;3.10;;;;;;;;;;10435488;28;20253;-71
2022/06/05 07:12:42;;;;;;;3.53;3.08;;;;;;;;;;10450045;28;20569;-71
2022/06/05 07:17:43;;;;;;;2.97;2.88;;;;;;;;;;10438309;28;20175;-75
2022/06/05 07:22:44;;;;;;;3.60;3.28;;;;;;;;;;10445457;28;20210;-74
2022/06/05 07:27:45;;;;;;;2.97;2.78;;;;;;;;;;10439360;28;20270;-75
2022/06/05 07:32:47;;;;;;;3.83;2.92;;;;;;;;;;10434025;28;20214;-74
2022/06/05 07:37:48;;;;;;;3.10;2.97;;;;;;;;;;10451752;28;20190;-75
2022/06/05 07:42:49;;;;;;;4.80;3.13;;;;;;;;;;10448592;28;20214;-74
2022/06/05 07:47:50;;;;;;;3.00;2.80;;;;;;;;;;10428376;28;20175;-74
2022/06/05 07:58:11;;;;;;;2.58;2.47;;;;;;;;;;10431106;28;20183;-74
2022/06/05 08:03:12;;;;;;;2.65;2.58;;;;;;;;;;10429801;28;20226;-75
2022/06/05 08:08:13;;;;;;;2.88;2.80;;;;;;;;;;10418204;28;20210;-76
2022/06/05 08:13:14;;;;;;;2.95;2.85;;;;;;;;;;10438500;28;20217;-76
2022/06/05 08:18:15;;;;;;;2.50;2.40;;;;;;;;;;10448711;28;20179;-75
2022/06/05 08:23:16;;;;;;;2.85;2.75;;;;;;;;;;10449092;28;20237;-76
2022/06/05 08:28:17;;;;;;;2.42;2.42;;;;;;;;;;10435286;28;20791;-76
2022/06/05 08:33:18;;;;;;;2.85;2.60;;;;;;;;;;10439758;28;21080;-75
2022/06/05 08:43:45;;;;;;;2.50;2.30;;;;;;;;;;10436096;28;20215;-76
2022/06/05 08:48:49;;;;;;;2.88;2.65;;;;;;;;;;10444583;28;20178;-76
2022/06/05 08:54:11;;;;;;;2.63;2.42;;;;;;;;;;10409381;28;20199;-75
2022/06/05 08:59:21;;;;;;;3.33;2.42;;;;;;;;;;10412737;28;20207;-75
2022/06/05 09:04:24;;;;;;;2.28;2.20;;;;;;;;;;10425399;28;20969;-75
2022/06/05 09:09:35;;;;;;;2.28;2.17;;;;;;;;;;10393333;28;20235;-75
2022/06/05 09:14:39;;;;;;;2.13;2.03;;;;;;;;;;10404033;28;20206;-75
2022/06/05 09:19:41;;;;;;;2.92;2.72;;;;;;;;;;10393548;28;20217;-76
2022/06/05 09:25:00;;;;;;;2.75;2.58;;;;;;;;;;10372709;28;20766;-75
2022/06/05 09:30:12;;;;;;;2.15;2.10;;;;;;;;;;10405903;28;20255;-76
2022/06/05 09:35:23;;;;;;;2.72;2.70;;;;;;;;;;10397980;28;20219;-76
2022/06/05 09:40:30;;;;;;;2.40;2.38;;;;;;;;;;10399964;28;20769;-77
2022/06/05 09:45:42;;;;;;;2.70;2.53;;;;;;;;;;10391651;28;20210;-76
2022/06/05 09:50:43;;;;;;;3.33;2.80;;;;;;;;;;10389138;28;20183;-76
2022/06/05 09:55:51;;;;;;;3.38;3.15;;;;;;;;;;10400447;28;20721;-76
2022/06/05 10:00:53;;;;;;;2.95;2.75;;;;;;;;;;10359443;28;20226;-75
2022/06/05 10:06:11;;;;;;;2.78;2.67;;;;;;;;;;10400388;28;20234;-77
2022/06/05 10:11:31;;;;;;;3.08;2.97;;;;;;;;;;10451421;28;20674;-75
2022/06/05 10:16:36;;;;;;;3.05;2.85;;;;;;;;;;10414247;28;20727;-75
2022/06/05 10:21:40;;;;;;;3.10;3.00;;;;;;;;;;10449674;28;20223;-75
2022/06/05 10:26:47;;;;;;;3.45;3.25;;;;;;;;;;10451182;28;20185;-75
2022/06/05 10:31:53;;;;;;;3.08;2.97;;;;;;;;;;10446976;28;20211;-75
2022/06/05 10:36:58;;;;;;;3.67;3.50;;;;;;;;;;10445851;28;20562;-75
2022/06/05 10:41:59;;;;;;;3.00;2.90;;;;;;;;;;10453543;28;20314;-76
2022/06/05 10:47:11;;;;;;;2.92;2.80;;;;;;;;;;10451195;28;20190;-78
2022/06/05 10:52:31;;;;;;;3.13;3.00;;;;;;;;;;10463620;28;20198;-77
2022/06/05 10:57:38;;;;;;;2.55;2.55;;;;;;;;;;10456559;28;20182;-77
2022/06/05 11:03:01;;;;;;;3.33;2.95;;;;;;;;;;10456436;28;20236;-78
2022/06/05 11:08:08;;;;;;;3.30;3.10;;;;;;;;;;10462054;28;20245;-75
2022/06/05 11:18:40;;;;;;;2.83;2.63;;;;;;;;;;10455994;28;20166;-76
2022/06/05 11:23:42;;;;;;;2.88;2.78;;;;;;;;;;10440985;28;20225;-77
2022/06/05 11:28:43;;;;;;;6.38;3.40;;;;;;;;;;10432034;28;20250;-77
2022/06/05 11:33:50;;;;;;;3.10;3.00;;;;;;;;;;10439736;28;20220;-77
2022/06/05 11:39:10;;;;;;;2.90;2.80;;;;;;;;;;10436714;28;20867;-77
2022/06/05 11:44:30;;;;;;;2.63;2.42;;;;;;;;;;10415130;28;20208;-77
2022/06/05 11:49:44;;;;;;;3.08;2.92;;;;;;;;;;10447055;28;20838;-77
2022/06/05 11:55:04;;;;;;;3.00;2.80;;;;;;;;;;10435102;28;20191;-77
2022/06/05 12:00:27;;;;;;;2.80;2.60;;;;;;;;;;10425941;28;20685;-77
2022/06/05 12:05:31;;;;;;;3.22;2.65;;;;;;;;;;10431531;28;20313;-78
2022/06/05 12:10:35;;;;;;;2.42;2.42;;;;;;;;;;10432657;28;20206;-77
2022/06/05 12:15:55;;;;;;;2.90;2.75;;;;;;;;;;10433596;28;20580;-78
2022/06/05 12:21:01;;;;;;;2.65;2.55;;;;;;;;;;10410090;28;20209;-76
2022/06/05 12:26:02;;;;;;;2.30;2.30;;;;;;;;;;10409442;28;20195;-76
2022/06/05 12:31:09;;;;;;;2.17;2.17;;;;;;;;;;10437241;28;20207;-76
2022/06/05 12:36:26;;;;;;;2.60;2.50;;;;;;;;;;10449341;28;20262;-77
2022/06/05 12:41:37;;;;;;;2.70;2.60;;;;;;;;;;10424003;28;20212;-75
2022/06/05 12:46:44;;;;;;;2.60;2.45;;;;;;;;;;10435885;28;20745;-76
2022/06/05 12:51:53;;;;;;;2.80;2.60;;;;;;;;;;10424140;28;20256;-77
2022/06/05 12:56:57;;;;;;;2.42;2.42;;;;;;;;;;10431002;28;20594;-77
2022/06/05 13:02:01;;;;;;;2.05;1.90;;;;;;;;;;10442342;28;20854;-77
2022/06/05 13:07:05;;;;;;;2.55;2.55;;;;;;;;;;10399122;28;20242;-77
2022/06/05 13:12:20;;;;;;;2.40;2.35;;;;;;;;;;10428226;28;20744;-77
2022/06/05 13:17:41;;;;;;;2.40;2.40;;;;;;;;;;10416948;28;20179;-76
2022/06/05 13:22:58;;;;;;;2.60;2.50;;;;;;;;;;10455744;28;20213;-77
2022/06/05 13:28:17;;;;;;;1.92;1.92;;;;;;;;;;10443343;28;20548;-77
2022/06/05 13:33:33;;;;;;;2.90;2.70;;;;;;;;;;10429020;28;20212;-78
2022/06/05 13:38:40;;;;;;;2.88;2.70;;;;;;;;;;10451127;28;20210;-77
2022/06/05 13:43:46;;;;;;;4.15;2.85;;;;;;;;;;10434027;28;20265;-75
2022/06/05 13:49:01;;;;;;;4.38;3.10;;;;;;;;;;10420602;28;20211;-76
2022/06/05 13:54:11;;;;;;;2.25;2.15;;;;;;;;;;10424887;28;20197;-76
2022/06/05 13:59:18;;;;;;;2.45;2.20;;;;;;;;;;10419698;28;20225;-76
2022/06/05 14:04:24;;;;;;;2.92;2.88;;;;;;;;;;10433993;28;20219;-76
2022/06/05 14:09:34;;;;;;;2.47;2.47;;;;;;;;;;10434215;28;20217;-76
2022/06/05 14:14:39;;;;;;;3.63;3.17;;;;;;;;;;10441739;28;20697;-77
2022/06/05 14:19:41;;;;;;;2.75;2.75;;;;;;;;;;10439614;28;20300;-76
2022/06/05 14:24:43;;;;;;;3.00;2.90;;;;;;;;;;10446716;28;20202;-76
2022/06/05 14:29:47;;;;;;;2.90;2.80;;;;;;;;;;10449236;28;20190;-79
2022/06/05 14:34:48;;;;;;;3.10;3.10;;;;;;;;;;10448303;28;20225;-77
2022/06/05 14:39:51;;;;;;;6.38;2.90;;;;;;;;;;10446765;28;20434;-76
2022/06/05 14:44:58;;;;;;;2.75;2.75;;;;;;;;;;10433258;28;20202;-76
2022/06/05 14:50:01;;;;;;;2.95;2.95;;;;;;;;;;10408978;28;20187;-76
2022/06/05 15:00:32;;;;;;;2.83;2.83;;;;;;;;;;10428840;28;20226;-76
2022/06/05 15:05:36;;;;;;;2.80;2.80;;;;;;;;;;10412591;28;20320;-76
2022/06/05 15:10:43;;;;;;;3.30;3.17;;;;;;;;;;10442792;28;20193;-78
2022/06/05 15:15:52;;;;;;;3.35;2.90;;;;;;;;;;10457408;28;20757;-76
2022/06/05 15:21:00;;;;;;;2.83;2.70;;;;;;;;;;10436096;28;20234;-76
2022/06/05 15:26:19;;;;;;;3.15;2.90;;;;;;;;;;10452059;28;20190;-76
2022/06/05 15:31:27;;;;;;;3.00;2.90;;;;;;;;;;10429343;28;20203;-76
2022/06/05 15:36:35;;;;;;;2.85;2.85;;;;;;;;;;10407823;28;22047;-76
2022/06/05 15:41:39;;;;;;;3.05;3.05;;;;;;;;;;10441294;28;20336;-76
2022/06/05 15:46:52;;;;;;;3.05;3.00;;;;;;;;;;10447045;28;20290;-77
2022/06/05 15:52:11;;;;;;;3.45;3.35;;;;;;;;;;10418670;28;20182;-76
2022/06/05 16:02:54;;;;;;;3.35;3.30;;;;;;;;;;10440071;28;20225;-76
2022/06/05 16:07:58;;;;;;;3.30;3.20;;;;;;;;;;10411326;28;20800;-76
2022/06/05 16:13:02;;;;;;;3.97;3.88;;;;;;;;;;10394027;28;20223;-76
2022/06/05 16:18:06;;;;;;;3.75;3.50;;;;;;;;;;10413863;28;20175;-76
2022/06/05 16:23:27;;;;;;;5.05;4.75;;;;;;;;;;10403304;28;20218;-76
2022/06/05 16:28:32;;;;;;;4.38;4.18;;;;;;;;;;10404796;28;20662;-77
2022/06/05 16:33:33;;;;;;;4.25;3.92;;;;;;;;;;10407299;28;20211;-78
2022/06/05 16:38:45;;;;;;;4.05;3.85;;;;;;;;;;10381349;28;20191;-76
2022/06/05 16:43:54;;;;;;;3.60;3.40;;;;;;;;;;10443911;28;20694;-76
2022/06/05 16:48:56;;;;;;;3.83;3.47;;;;;;;;;;10441131;28;20655;-77
2022/06/05 16:54:12;;;;;;;3.83;3.70;;;;;;;;;;10445753;28;20199;-76
2022/06/05 16:59:40;;;;;;;3.50;3.40;;;;;;;;;;10433007;28;20383;-76
2022/06/05 17:04:45;;;;;;;3.47;3.25;;;;;;;;;;10395781;28;20229;-76
2022/06/05 17:09:47;;;;;;;3.42;3.40;;;;;;;;;;10446422;28;20191;-76
2022/06/05 17:14:51;;;;;;;3.15;3.15;;;;;;;;;;10416922;28;20198;-76
2022/06/05 17:19:54;;;;;;;3.60;3.40;;;;;;;;;;10437361;28;20257;-78
2022/06/05 17:25:10;;;;;;;3.42;3.33;;;;;;;;;;10446793;28;20207;-77
2022/06/05 17:30:37;;;;;;;3.85;3.65;;;;;;;;;;10446508;28;21065;-76
2022/06/05 17:35:47;;;;;;;3.10;3.10;;;;;;;;;;10435570;28;20288;-78
2022/06/05 17:40:56;;;;;;;4.30;3.92;;;;;;;;;;10453313;28;20865;-76
2022/06/05 17:46:16;;;;;;;3.70;3.60;;;;;;;;;;10451653;28;20667;-76
2022/06/05 17:51:34;;;;;;;4.10;3.85;;;;;;;;;;10444005;28;20260;-75
2022/06/05 17:56:36;;;;;;;11.88;10.65;;;;;;;;;;10432740;28;20232;-76
2022/06/05 18:01:45;;;;;;;20.65;13.13;;;;;;;;;;10422904;28;20217;-78
2022/06/05 18:06:47;;;;;;;12.18;11.05;;;;;;;;;;10442957;28;20221;-77
2022/06/05 18:12:03;;;;;;;5.35;4.93;;;;;;;;;;10424745;28;20189;-77
2022/06/05 18:17:15;;;;;;;5.13;4.82;;;;;;;;;;10454197;28;20210;-79
2022/06/05 18:22:27;;;;;;;4.53;4.43;;;;;;;;;;10445858;28;20212;-76
2022/06/05 18:27:30;;;;;;;4.25;3.88;;;;;;;;;;10452641;28;20186;-75
2022/06/05 18:32:42;;;;;;;4.65;4.30;;;;;;;;;;10449986;28;20273;-76
2022/06/05 18:43:05;;;;;;;4.80;4.55;;;;;;;;;;10447741;28;20210;-76
2022/06/05 18:48:08;;;;;;;4.85;4.53;;;;;;;;;;10428028;28;20275;-76
2022/06/05 18:53:16;;;;;;;5.00;4.70;;;;;;;;;;10435057;28;20195;-76
2022/06/05 18:58:36;;;;;;;5.00;4.80;;;;;;;;;;10411878;28;20178;-75
2022/06/05 19:03:38;;;;;;;5.78;5.57;;;;;;;;;;10443095;28;20281;-73
2022/06/05 19:08:40;;;;;;;4.97;4.78;;;;;;;;;;10462588;28;20230;-74
2022/06/05 19:13:48;;;;;;;5.15;5.05;;;;;;;;;;10457834;28;20210;-74
2022/06/05 19:18:57;;;;;;;5.18;4.97;;;;;;;;;;10461453;28;20170;-74
2022/06/05 19:24:01;;;;;;;7.13;6.82;;;;;;;;;;10431019;28;20221;-74
2022/06/05 19:29:08;;;;;;;6.07;5.75;;;;;;;;;;10467117;28;20292;-74
2022/06/05 19:34:18;;;;;;;5.20;5.10;;;;;;;;;;10464450;28;20206;-73
2022/06/05 19:39:28;;;;;;;5.63;5.43;;;;;;;;;;10463960;28;20198;-74
2022/06/05 19:44:31;;;;;;;5.38;5.03;;;;;;;;;;10463792;28;20282;-75
2022/06/05 19:49:43;;;;;;;5.82;5.53;;;;;;;;;;10447214;28;20228;-73
2022/06/05 19:54:44;;;;;;;5.95;5.72;;;;;;;;;;10449321;28;20544;-73
2022/06/05 20:00:06;;;;;;;6.13;5.63;;;;;;;;;;10447853;28;20198;-74
2022/06/05 20:05:34;;;;;;;6.00;5.80;;;;;;;;;;10362352;28;20216;-72
2022/06/05 20:10:43;;;;;;;6.03;5.82;;;;;;;;;;10362779;28;20187;-75
2022/06/05 20:15:45;;;;;;;5.85;5.70;;;;;;;;;;10346552;28;20303;-75
2022/06/05 20:20:51;;;;;;;6.68;6.28;;;;;;;;;;10362769;28;20898;-75
2022/06/05 20:26:00;;;;;;;6.68;6.43;;;;;;;;;;10361171;28;20360;-74
2022/06/05 20:31:14;;;;;;;6.43;6.13;;;;;;;;;;10365422;28;20330;-74
2022/06/05 20:36:20;;;;;;;6.30;6.10;;;;;;;;;;10350452;28;20220;-74
2022/06/05 20:41:27;;;;;;;6.75;6.55;;;;;;;;;;10403431;28;21204;-75
2022/06/05 20:46:31;;;;;;;6.95;6.80;;;;;;;;;;10412832;28;20211;-75
2022/06/05 20:51:33;;;;;;;6.97;6.68;;;;;;;;;;10440615;28;20248;-74
2022/06/05 20:56:37;;;;;;;8.05;7.55;;;;;;;;;;10434402;28;20241;-75
2022/06/05 21:01:47;;;;;;;6.80;6.60;;;;;;;;;;10458436;28;20228;-75
2022/06/05 21:17:32;;;;;;;7.63;7.32;;;;;;;;;;10452737;28;20199;-73
2022/06/05 21:22:34;;;;;;;7.70;7.30;;;;;;;;;;10462235;28;20996;-74
2022/06/05 21:27:37;;;;;;;7.47;7.13;;;;;;;;;;10449716;28;20268;-74
2022/06/05 21:32:41;;;;;;;8.27;7.68;;;;;;;;;;10454097;28;20214;-73
2022/06/05 21:37:45;;;;;;;9.15;8.60;;;;;;;;;;10439830;28;20258;-75
2022/06/05 21:42:47;;;;;;;9.20;8.70;;;;;;;;;;10453304;28;20206;-75
2022/06/05 21:47:49;;;;;;;8.88;8.20;;;;;;;;;;10444370;28;20186;-74
2022/06/05 21:52:50;;;;;;;9.10;8.60;;;;;;;;;;10433618;28;20198;-74
2022/06/05 21:57:55;;;;;;;8.05;7.55;;;;;;;;;;10426862;28;20900;-74
2022/06/05 22:02:56;;;;;;;8.13;7.65;;;;;;;;;;10450542;28;20234;-74
2022/06/05 22:07:57;;;;;;;8.00;7.57;;;;;;;;;;10459540;28;20224;-75
2022/06/05 22:13:00;;;;;;;7.20;6.93;;;;;;;;;;10450878;28;20217;-74
2022/06/05 22:18:01;;;;;;;7.90;7.47;;;;;;;;;;10444536;28;20233;-75
2022/06/05 22:23:06;;;;;;;8.25;7.90;;;;;;;;;;10450301;28;20967;-74
2022/06/05 22:28:08;;;;;;;8.07;7.68;;;;;;;;;;10427790;28;20174;-74
2022/06/05 22:33:10;;;;;;;8.18;7.55;;;;;;;;;;10460284;28;20214;-74
2022/06/05 22:38:11;;;;;;;8.10;7.80;;;;;;;;;;10426760;28;21240;-74
2022/06/05 22:43:12;;;;;;;8.32;7.78;;;;;;;;;;10437277;28;20229;-74
2022/06/05 22:48:13;;;;;;;8.13;7.72;;;;;;;;;;10446068;28;20178;-75
2022/06/05 22:53:15;;;;;;;7.65;7.30;;;;;;;;;;10432850;28;20194;-73
2022/06/05 22:58:16;;;;;;;7.78;7.47;;;;;;;;;;10412454;28;20178;-74
2022/06/05 23:03:18;;;;;;;6.90;6.70;;;;;;;;;;10418892;28;20228;-74
2022/06/05 23:08:21;;;;;;;7.43;7.18;;;;;;;;;;10452213;28;20214;-75
2022/06/05 23:13:22;;;;;;;7.25;6.95;;;;;;;;;;10452085;28;20222;-74
2022/06/05 23:18:23;;;;;;;7.07;6.78;;;;;;;;;;10453185;28;21017;-75
2022/06/05 23:23:24;;;;;;;7.45;7.07;;;;;;;;;;10450821;28;20214;-74
2022/06/05 23:28:25;;;;;;;7.13;6.82;;;;;;;;;;10459971;28;20175;-75
2022/06/05 23:33:26;;;;;;;6.60;6.28;;;;;;;;;;10464931;28;20255;-74
2022/06/05 23:38:27;;;;;;;8.10;7.68;;;;;;;;;;10447864;28;20341;-73
2022/06/05 23:43:29;;;;;;;7.38;6.90;;;;;;;;;;10441703;28;20216;-74
2022/06/05 23:48:31;;;;;;;7.63;7.28;;;;;;;;;;10453150;28;20828;-74
2022/06/05 23:53:32;;;;;;;8.07;7.57;;;;;;;;;;10446068;28;20708;-76
2022/06/05 23:58:36;;;;;;;9.10;8.50;;;;;;;;;;10438467;28;20193;-76
